sensor_id;sensor_type;location;lat;lon;timestamp;P1;durP1;ratioP1;P2;durP2;ratioP2
52166;SDS011;38149;52.666;6.428;2024-03-08T00:02:14;0.30;;;0.30;;
52166;SDS011;38149;52.666;6.428;2024-03-08T00:04:40;0.30;;;0.30;;
52166;SDS011;38149;52.666;6.428;2024-03-08T00:07:07;0.30;;;0.30;;
52166;SDS011;38149;52.666;6.428;2024-03-08T00:09:33;0.20;;;0.20;;
52166;SDS011;38149;52.666;6.428;2024-03-08T00:11:59;0.30;;;0.30;;
52166;SDS011;38149;52.666;6.428;2024-03-08T00:14:25;0.30;;;0.30;;
52166;SDS011;38149;52.666;6.428;2024-03-08T00:16:52;0.28;;;0.28;;
52166;SDS011;38149;52.666;6.428;2024-03-08T00:19:19;0.30;;;0.30;;
52166;SDS011;38149;52.666;6.428;2024-03-08T00:21:45;0.30;;;0.30;;
52166;SDS011;38149;52.666;6.428;2024-03-08T00:24:13;0.30;;;0.30;;
52166;SDS011;38149;52.666;6.428;2024-03-08T00:26:39;0.30;;;0.30;;
52166;SDS011;38149;52.666;6.428;2024-03-08T00:29:07;0.30;;;0.30;;
52166;SDS011;38149;52.666;6.428;2024-03-08T00:31:33;0.25;;;0.25;;
52166;SDS011;38149;52.666;6.428;2024-03-08T00:33:59;0.30;;;0.30;;
52166;SDS011;38149;52.666;6.428;2024-03-08T00:36:25;0.30;;;0.30;;
52166;SDS011;38149;52.666;6.428;2024-03-08T00:38:51;0.30;;;0.30;;
52166;SDS011;38149;52.666;6.428;2024-03-08T00:41:18;0.20;;;0.20;;
52166;SDS011;38149;52.666;6.428;2024-03-08T00:43:44;0.20;;;0.20;;
52166;SDS011;38149;52.666;6.428;2024-03-08T00:46:12;0.30;;;0.30;;
52166;SDS011;38149;52.666;6.428;2024-03-08T00:48:40;0.25;;;0.25;;
52166;SDS011;38149;52.666;6.428;2024-03-08T00:51:08;0.30;;;0.30;;
52166;SDS011;38149;52.666;6.428;2024-03-08T00:53:34;0.25;;;0.25;;
52166;SDS011;38149;52.666;6.428;2024-03-08T00:56:00;0.30;;;0.30;;
52166;SDS011;38149;52.666;6.428;2024-03-08T00:58:26;0.30;;;0.30;;
52166;SDS011;38149;52.666;6.428;2024-03-08T01:00:54;0.30;;;0.30;;
52166;SDS011;38149;52.666;6.428;2024-03-08T01:03:21;0.30;;;0.30;;
52166;SDS011;38149;52.666;6.428;2024-03-08T01:05:47;0.30;;;0.30;;
52166;SDS011;38149;52.666;6.428;2024-03-08T01:08:13;0.20;;;0.20;;
52166;SDS011;38149;52.666;6.428;2024-03-08T01:10:40;0.30;;;0.30;;
52166;SDS011;38149;52.666;6.428;2024-03-08T01:13:06;0.30;;;0.30;;
52166;SDS011;38149;52.666;6.428;2024-03-08T01:15:32;0.20;;;0.20;;
52166;SDS011;38149;52.666;6.428;2024-03-08T01:17:58;0.30;;;0.30;;
52166;SDS011;38149;52.666;6.428;2024-03-08T01:20:25;0.25;;;0.25;;
52166;SDS011;38149;52.666;6.428;2024-03-08T01:22:53;0.30;;;0.30;;
52166;SDS011;38149;52.666;6.428;2024-03-08T01:25:19;0.30;;;0.30;;
52166;SDS011;38149;52.666;6.428;2024-03-08T01:27:45;0.30;;;0.30;;
52166;SDS011;38149;52.666;6.428;2024-03-08T01:30:11;0.30;;;0.30;;
52166;SDS011;38149;52.666;6.428;2024-03-08T01:32:38;0.30;;;0.30;;
52166;SDS011;38149;52.666;6.428;2024-03-08T01:35:04;0.20;;;0.20;;
52166;SDS011;38149;52.666;6.428;2024-03-08T01:37:31;0.30;;;0.30;;
52166;SDS011;38149;52.666;6.428;2024-03-08T01:39:57;0.30;;;0.30;;
52166;SDS011;38149;52.666;6.428;2024-03-08T01:42:23;0.30;;;0.30;;
52166;SDS011;38149;52.666;6.428;2024-03-08T01:44:49;0.30;;;0.30;;
52166;SDS011;38149;52.666;6.428;2024-03-08T01:47:16;0.30;;;0.30;;
52166;SDS011;38149;52.666;6.428;2024-03-08T01:49:43;0.30;;;0.30;;
52166;SDS011;38149;52.666;6.428;2024-03-08T01:52:09;0.30;;;0.30;;
52166;SDS011;38149;52.666;6.428;2024-03-08T01:54:36;0.30;;;0.30;;
52166;SDS011;38149;52.666;6.428;2024-03-08T01:57:02;0.20;;;0.20;;
52166;SDS011;38149;52.666;6.428;2024-03-08T01:59:28;0.30;;;0.30;;
52166;SDS011;38149;52.666;6.428;2024-03-08T02:01:55;0.30;;;0.30;;
52166;SDS011;38149;52.666;6.428;2024-03-08T02:04:27;0.30;;;0.30;;
52166;SDS011;38149;52.666;6.428;2024-03-08T02:06:55;0.30;;;0.30;;
52166;SDS011;38149;52.666;6.428;2024-03-08T02:09:23;0.25;;;0.25;;
52166;SDS011;38149;52.666;6.428;2024-03-08T02:11:50;0.30;;;0.30;;
52166;SDS011;38149;52.666;6.428;2024-03-08T02:14:17;0.30;;;0.30;;
52166;SDS011;38149;52.666;6.428;2024-03-08T02:16:44;0.30;;;0.30;;
52166;SDS011;38149;52.666;6.428;2024-03-08T02:19:10;0.30;;;0.30;;
52166;SDS011;38149;52.666;6.428;2024-03-08T02:21:36;0.30;;;0.30;;
52166;SDS011;38149;52.666;6.428;2024-03-08T02:24:03;0.30;;;0.30;;
52166;SDS011;38149;52.666;6.428;2024-03-08T02:26:29;0.30;;;0.30;;
52166;SDS011;38149;52.666;6.428;2024-03-08T02:28:56;0.30;;;0.30;;
52166;SDS011;38149;52.666;6.428;2024-03-08T02:31:22;0.30;;;0.30;;
52166;SDS011;38149;52.666;6.428;2024-03-08T02:33:48;0.30;;;0.30;;
52166;SDS011;38149;52.666;6.428;2024-03-08T02:36:14;0.30;;;0.30;;
52166;SDS011;38149;52.666;6.428;2024-03-08T02:38:41;0.30;;;0.30;;
52166;SDS011;38149;52.666;6.428;2024-03-08T02:41:07;0.20;;;0.20;;
52166;SDS011;38149;52.666;6.428;2024-03-08T02:43:34;0.20;;;0.20;;
52166;SDS011;38149;52.666;6.428;2024-03-08T02:46:00;0.30;;;0.30;;
52166;SDS011;38149;52.666;6.428;2024-03-08T02:48:26;0.30;;;0.30;;
52166;SDS011;38149;52.666;6.428;2024-03-08T02:50:52;0.30;;;0.30;;
52166;SDS011;38149;52.666;6.428;2024-03-08T02:53:18;0.30;;;0.30;;
52166;SDS011;38149;52.666;6.428;2024-03-08T02:55:45;0.30;;;0.30;;
52166;SDS011;38149;52.666;6.428;2024-03-08T02:58:11;0.30;;;0.30;;
52166;SDS011;38149;52.666;6.428;2024-03-08T03:00:39;0.30;;;0.30;;
52166;SDS011;38149;52.666;6.428;2024-03-08T03:03:06;0.30;;;0.30;;
52166;SDS011;38149;52.666;6.428;2024-03-08T03:05:32;0.30;;;0.30;;
52166;SDS011;38149;52.666;6.428;2024-03-08T03:07:59;0.30;;;0.30;;
52166;SDS011;38149;52.666;6.428;2024-03-08T03:10:25;0.30;;;0.30;;
52166;SDS011;38149;52.666;6.428;2024-03-08T03:12:51;0.30;;;0.30;;
52166;SDS011;38149;52.666;6.428;2024-03-08T03:15:18;0.20;;;0.20;;
52166;SDS011;38149;52.666;6.428;2024-03-08T03:17:50;0.30;;;0.30;;
52166;SDS011;38149;52.666;6.428;2024-03-08T03:20:19;0.30;;;0.30;;
52166;SDS011;38149;52.666;6.428;2024-03-08T03:22:51;0.30;;;0.30;;
52166;SDS011;38149;52.666;6.428;2024-03-08T03:25:18;0.30;;;0.30;;
52166;SDS011;38149;52.666;6.428;2024-03-08T03:27:50;0.30;;;0.30;;
52166;SDS011;38149;52.666;6.428;2024-03-08T03:30:21;0.30;;;0.30;;
52166;SDS011;38149;52.666;6.428;2024-03-08T03:32:48;0.30;;;0.30;;
52166;SDS011;38149;52.666;6.428;2024-03-08T03:35:19;0.30;;;0.30;;
52166;SDS011;38149;52.666;6.428;2024-03-08T03:37:46;0.30;;;0.30;;
52166;SDS011;38149;52.666;6.428;2024-03-08T03:43:01;0.30;;;0.30;;
52166;SDS011;38149;52.666;6.428;2024-03-08T03:45:28;0.30;;;0.30;;
52166;SDS011;38149;52.666;6.428;2024-03-08T03:47:58;0.30;;;0.30;;
52166;SDS011;38149;52.666;6.428;2024-03-08T03:50:25;0.30;;;0.30;;
52166;SDS011;38149;52.666;6.428;2024-03-08T03:52:51;0.30;;;0.30;;
52166;SDS011;38149;52.666;6.428;2024-03-08T03:55:17;0.30;;;0.30;;
52166;SDS011;38149;52.666;6.428;2024-03-08T03:57:44;0.30;;;0.30;;
52166;SDS011;38149;52.666;6.428;2024-03-08T04:00:11;0.30;;;0.30;;
52166;SDS011;38149;52.666;6.428;2024-03-08T04:02:37;0.30;;;0.30;;
52166;SDS011;38149;52.666;6.428;2024-03-08T04:05:05;0.30;;;0.30;;
52166;SDS011;38149;52.666;6.428;2024-03-08T04:07:32;0.30;;;0.30;;
52166;SDS011;38149;52.666;6.428;2024-03-08T04:09:59;0.30;;;0.30;;
52166;SDS011;38149;52.666;6.428;2024-03-08T04:12:28;0.30;;;0.30;;
52166;SDS011;38149;52.666;6.428;2024-03-08T04:14:55;0.30;;;0.30;;
52166;SDS011;38149;52.666;6.428;2024-03-08T04:17:21;0.30;;;0.30;;
52166;SDS011;38149;52.666;6.428;2024-03-08T04:19:49;0.30;;;0.30;;
52166;SDS011;38149;52.666;6.428;2024-03-08T04:22:15;0.30;;;0.30;;
52166;SDS011;38149;52.666;6.428;2024-03-08T04:24:43;0.30;;;0.30;;
52166;SDS011;38149;52.666;6.428;2024-03-08T04:27:09;0.30;;;0.30;;
52166;SDS011;38149;52.666;6.428;2024-03-08T04:29:35;0.30;;;0.30;;
52166;SDS011;38149;52.666;6.428;2024-03-08T04:32:03;0.30;;;0.30;;
52166;SDS011;38149;52.666;6.428;2024-03-08T04:34:30;0.30;;;0.30;;
52166;SDS011;38149;52.666;6.428;2024-03-08T04:36:59;0.40;;;0.40;;
52166;SDS011;38149;52.666;6.428;2024-03-08T04:39:26;0.30;;;0.30;;
52166;SDS011;38149;52.666;6.428;2024-03-08T04:42:00;0.30;;;0.30;;
52166;SDS011;38149;52.666;6.428;2024-03-08T04:44:29;0.30;;;0.30;;
52166;SDS011;38149;52.666;6.428;2024-03-08T04:46:55;0.40;;;0.40;;
52166;SDS011;38149;52.666;6.428;2024-03-08T04:49:21;0.30;;;0.30;;
52166;SDS011;38149;52.666;6.428;2024-03-08T04:51:48;0.30;;;0.30;;
52166;SDS011;38149;52.666;6.428;2024-03-08T04:54:14;0.30;;;0.30;;
52166;SDS011;38149;52.666;6.428;2024-03-08T04:56:40;0.30;;;0.30;;
52166;SDS011;38149;52.666;6.428;2024-03-08T04:59:06;0.30;;;0.30;;
52166;SDS011;38149;52.666;6.428;2024-03-08T05:01:33;0.30;;;0.30;;
52166;SDS011;38149;52.666;6.428;2024-03-08T05:04:03;0.30;;;0.30;;
52166;SDS011;38149;52.666;6.428;2024-03-08T05:06:30;0.30;;;0.30;;
52166;SDS011;38149;52.666;6.428;2024-03-08T05:08:56;0.30;;;0.30;;
52166;SDS011;38149;52.666;6.428;2024-03-08T05:11:22;0.30;;;0.30;;
52166;SDS011;38149;52.666;6.428;2024-03-08T05:13:49;0.30;;;0.30;;
52166;SDS011;38149;52.666;6.428;2024-03-08T05:16:15;0.30;;;0.30;;
52166;SDS011;38149;52.666;6.428;2024-03-08T05:18:41;0.30;;;0.30;;
52166;SDS011;38149;52.666;6.428;2024-03-08T05:21:07;0.30;;;0.30;;
52166;SDS011;38149;52.666;6.428;2024-03-08T05:23:34;0.30;;;0.30;;
52166;SDS011;38149;52.666;6.428;2024-03-08T05:26:00;0.30;;;0.30;;
52166;SDS011;38149;52.666;6.428;2024-03-08T05:28:26;0.30;;;0.30;;
52166;SDS011;38149;52.666;6.428;2024-03-08T05:30:52;0.30;;;0.30;;
52166;SDS011;38149;52.666;6.428;2024-03-08T05:33:21;0.30;;;0.30;;
52166;SDS011;38149;52.666;6.428;2024-03-08T05:35:48;0.30;;;0.30;;
52166;SDS011;38149;52.666;6.428;2024-03-08T05:38:15;0.30;;;0.30;;
52166;SDS011;38149;52.666;6.428;2024-03-08T05:40:41;0.30;;;0.30;;
52166;SDS011;38149;52.666;6.428;2024-03-08T05:43:08;0.30;;;0.30;;
52166;SDS011;38149;52.666;6.428;2024-03-08T05:45:34;0.30;;;0.30;;
52166;SDS011;38149;52.666;6.428;2024-03-08T05:48:00;0.30;;;0.30;;
52166;SDS011;38149;52.666;6.428;2024-03-08T05:50:26;0.30;;;0.30;;
52166;SDS011;38149;52.666;6.428;2024-03-08T05:52:52;0.30;;;0.30;;
52166;SDS011;38149;52.666;6.428;2024-03-08T05:55:19;0.30;;;0.30;;
52166;SDS011;38149;52.666;6.428;2024-03-08T05:57:46;0.30;;;0.30;;
52166;SDS011;38149;52.666;6.428;2024-03-08T06:00:13;0.30;;;0.30;;
52166;SDS011;38149;52.666;6.428;2024-03-08T06:02:40;0.30;;;0.30;;
52166;SDS011;38149;52.666;6.428;2024-03-08T06:05:10;0.30;;;0.30;;
52166;SDS011;38149;52.666;6.428;2024-03-08T06:07:39;0.30;;;0.30;;
52166;SDS011;38149;52.666;6.428;2024-03-08T06:10:07;0.30;;;0.30;;
52166;SDS011;38149;52.666;6.428;2024-03-08T06:12:35;0.30;;;0.30;;
52166;SDS011;38149;52.666;6.428;2024-03-08T06:15:08;0.30;;;0.30;;
52166;SDS011;38149;52.666;6.428;2024-03-08T06:17:35;0.30;;;0.30;;
52166;SDS011;38149;52.666;6.428;2024-03-08T06:20:02;0.30;;;0.30;;
52166;SDS011;38149;52.666;6.428;2024-03-08T06:25:27;0.30;;;0.30;;
52166;SDS011;38149;52.666;6.428;2024-03-08T06:27:53;0.30;;;0.30;;
52166;SDS011;38149;52.666;6.428;2024-03-08T06:30:19;0.32;;;0.32;;
52166;SDS011;38149;52.666;6.428;2024-03-08T06:32:46;0.30;;;0.30;;
52166;SDS011;38149;52.666;6.428;2024-03-08T06:35:12;0.30;;;0.30;;
52166;SDS011;38149;52.666;6.428;2024-03-08T06:37:40;0.30;;;0.30;;
52166;SDS011;38149;52.666;6.428;2024-03-08T06:40:09;0.30;;;0.30;;
52166;SDS011;38149;52.666;6.428;2024-03-08T06:42:38;0.40;;;0.40;;
52166;SDS011;38149;52.666;6.428;2024-03-08T06:45:06;0.30;;;0.30;;
52166;SDS011;38149;52.666;6.428;2024-03-08T06:47:34;0.30;;;0.30;;
52166;SDS011;38149;52.666;6.428;2024-03-08T06:50:00;0.30;;;0.30;;
52166;SDS011;38149;52.666;6.428;2024-03-08T06:52:26;0.30;;;0.30;;
52166;SDS011;38149;52.666;6.428;2024-03-08T06:54:52;0.30;;;0.30;;
52166;SDS011;38149;52.666;6.428;2024-03-08T06:57:18;0.30;;;0.30;;
52166;SDS011;38149;52.666;6.428;2024-03-08T06:59:48;0.30;;;0.30;;
52166;SDS011;38149;52.666;6.428;2024-03-08T07:02:14;0.30;;;0.30;;
52166;SDS011;38149;52.666;6.428;2024-03-08T07:04:40;0.30;;;0.30;;
52166;SDS011;38149;52.666;6.428;2024-03-08T07:07:06;0.30;;;0.30;;
52166;SDS011;38149;52.666;6.428;2024-03-08T07:09:35;0.30;;;0.30;;
52166;SDS011;38149;52.666;6.428;2024-03-08T07:12:01;0.30;;;0.30;;
52166;SDS011;38149;52.666;6.428;2024-03-08T07:14:30;0.30;;;0.30;;
52166;SDS011;38149;52.666;6.428;2024-03-08T07:16:57;0.30;;;0.30;;
52166;SDS011;38149;52.666;6.428;2024-03-08T07:19:23;0.30;;;0.30;;
52166;SDS011;38149;52.666;6.428;2024-03-08T07:21:49;0.40;;;0.40;;
52166;SDS011;38149;52.666;6.428;2024-03-08T07:24:15;0.30;;;0.30;;
52166;SDS011;38149;52.666;6.428;2024-03-08T07:26:41;0.30;;;0.30;;
52166;SDS011;38149;52.666;6.428;2024-03-08T07:29:08;0.30;;;0.30;;
52166;SDS011;38149;52.666;6.428;2024-03-08T07:31:34;0.30;;;0.30;;
52166;SDS011;38149;52.666;6.428;2024-03-08T07:34:15;0.30;;;0.30;;
52166;SDS011;38149;52.666;6.428;2024-03-08T07:36:41;0.40;;;0.40;;
52166;SDS011;38149;52.666;6.428;2024-03-08T07:39:08;0.30;;;0.30;;
52166;SDS011;38149;52.666;6.428;2024-03-08T07:41:39;0.30;;;0.30;;
52166;SDS011;38149;52.666;6.428;2024-03-08T07:44:06;0.30;;;0.30;;
52166;SDS011;38149;52.666;6.428;2024-03-08T07:46:32;0.30;;;0.30;;
52166;SDS011;38149;52.666;6.428;2024-03-08T07:49:02;0.30;;;0.30;;
52166;SDS011;38149;52.666;6.428;2024-03-08T07:51:28;0.30;;;0.30;;
52166;SDS011;38149;52.666;6.428;2024-03-08T07:53:55;0.30;;;0.30;;
52166;SDS011;38149;52.666;6.428;2024-03-08T07:56:22;0.30;;;0.30;;
52166;SDS011;38149;52.666;6.428;2024-03-08T07:58:48;0.30;;;0.30;;
52166;SDS011;38149;52.666;6.428;2024-03-08T08:01:18;0.30;;;0.30;;
52166;SDS011;38149;52.666;6.428;2024-03-08T08:03:44;0.30;;;0.30;;
52166;SDS011;38149;52.666;6.428;2024-03-08T08:06:11;0.35;;;0.35;;
52166;SDS011;38149;52.666;6.428;2024-03-08T08:08:43;0.30;;;0.30;;
52166;SDS011;38149;52.666;6.428;2024-03-08T08:11:10;0.30;;;0.30;;
52166;SDS011;38149;52.666;6.428;2024-03-08T08:13:40;0.30;;;0.30;;
52166;SDS011;38149;52.666;6.428;2024-03-08T08:16:08;0.30;;;0.30;;
52166;SDS011;38149;52.666;6.428;2024-03-08T08:18:35;0.30;;;0.30;;
52166;SDS011;38149;52.666;6.428;2024-03-08T08:21:02;0.30;;;0.30;;
52166;SDS011;38149;52.666;6.428;2024-03-08T08:23:33;0.30;;;0.30;;
52166;SDS011;38149;52.666;6.428;2024-03-08T08:25:59;0.30;;;0.30;;
52166;SDS011;38149;52.666;6.428;2024-03-08T08:28:26;0.30;;;0.30;;
52166;SDS011;38149;52.666;6.428;2024-03-08T08:30:52;0.30;;;0.30;;
52166;SDS011;38149;52.666;6.428;2024-03-08T08:33:19;0.30;;;0.30;;
52166;SDS011;38149;52.666;6.428;2024-03-08T08:35:45;0.30;;;0.30;;
52166;SDS011;38149;52.666;6.428;2024-03-08T08:38:13;0.30;;;0.30;;
52166;SDS011;38149;52.666;6.428;2024-03-08T08:40:39;0.30;;;0.30;;
52166;SDS011;38149;52.666;6.428;2024-03-08T08:43:06;0.30;;;0.30;;
52166;SDS011;38149;52.666;6.428;2024-03-08T08:45:32;0.35;;;0.35;;
52166;SDS011;38149;52.666;6.428;2024-03-08T08:47:59;0.30;;;0.30;;
52166;SDS011;38149;52.666;6.428;2024-03-08T08:50:25;0.30;;;0.30;;
52166;SDS011;38149;52.666;6.428;2024-03-08T08:52:53;0.30;;;0.30;;
52166;SDS011;38149;52.666;6.428;2024-03-08T08:55:19;0.30;;;0.30;;
52166;SDS011;38149;52.666;6.428;2024-03-08T08:57:49;0.30;;;0.30;;
52166;SDS011;38149;52.666;6.428;2024-03-08T09:00:17;0.30;;;0.30;;
52166;SDS011;38149;52.666;6.428;2024-03-08T09:02:49;0.30;;;0.30;;
52166;SDS011;38149;52.666;6.428;2024-03-08T09:05:16;0.30;;;0.30;;
52166;SDS011;38149;52.666;6.428;2024-03-08T09:07:43;0.30;;;0.30;;
52166;SDS011;38149;52.666;6.428;2024-03-08T09:10:11;0.30;;;0.30;;
52166;SDS011;38149;52.666;6.428;2024-03-08T09:12:39;0.30;;;0.30;;
52166;SDS011;38149;52.666;6.428;2024-03-08T09:15:06;0.30;;;0.30;;
52166;SDS011;38149;52.666;6.428;2024-03-08T09:17:36;0.30;;;0.30;;
52166;SDS011;38149;52.666;6.428;2024-03-08T09:20:06;0.30;;;0.30;;
52166;SDS011;38149;52.666;6.428;2024-03-08T09:22:39;0.30;;;0.30;;
52166;SDS011;38149;52.666;6.428;2024-03-08T09:25:09;0.30;;;0.30;;
52166;SDS011;38149;52.666;6.428;2024-03-08T09:27:35;0.30;;;0.30;;
52166;SDS011;38149;52.666;6.428;2024-03-08T09:30:01;0.30;;;0.30;;
52166;SDS011;38149;52.666;6.428;2024-03-08T09:32:28;0.30;;;0.30;;
52166;SDS011;38149;52.666;6.428;2024-03-08T09:34:54;0.30;;;0.30;;
52166;SDS011;38149;52.666;6.428;2024-03-08T09:37:21;0.30;;;0.30;;
52166;SDS011;38149;52.666;6.428;2024-03-08T09:39:47;0.30;;;0.30;;
52166;SDS011;38149;52.666;6.428;2024-03-08T09:42:15;0.20;;;0.20;;
52166;SDS011;38149;52.666;6.428;2024-03-08T09:44:44;0.28;;;0.28;;
52166;SDS011;38149;52.666;6.428;2024-03-08T09:47:12;0.30;;;0.30;;
52166;SDS011;38149;52.666;6.428;2024-03-08T09:49:39;0.20;;;0.20;;
52166;SDS011;38149;52.666;6.428;2024-03-08T09:52:06;0.30;;;0.30;;
52166;SDS011;38149;52.666;6.428;2024-03-08T09:54:33;0.30;;;0.30;;
52166;SDS011;38149;52.666;6.428;2024-03-08T09:56:59;0.30;;;0.30;;
52166;SDS011;38149;52.666;6.428;2024-03-08T09:59:29;0.30;;;0.30;;
52166;SDS011;38149;52.666;6.428;2024-03-08T10:02:00;0.28;;;0.28;;
52166;SDS011;38149;52.666;6.428;2024-03-08T10:04:28;0.20;;;0.20;;
52166;SDS011;38149;52.666;6.428;2024-03-08T10:06:57;0.30;;;0.30;;
52166;SDS011;38149;52.666;6.428;2024-03-08T10:09:24;0.30;;;0.30;;
52166;SDS011;38149;52.666;6.428;2024-03-08T10:11:58;0.20;;;0.20;;
52166;SDS011;38149;52.666;6.428;2024-03-08T10:14:25;0.28;;;0.28;;
52166;SDS011;38149;52.666;6.428;2024-03-08T10:16:51;0.20;;;0.20;;
52166;SDS011;38149;52.666;6.428;2024-03-08T10:19:18;0.28;;;0.28;;
52166;SDS011;38149;52.666;6.428;2024-03-08T10:21:48;0.20;;;0.20;;
52166;SDS011;38149;52.666;6.428;2024-03-08T10:24:15;0.20;;;0.20;;
52166;SDS011;38149;52.666;6.428;2024-03-08T10:26:41;0.25;;;0.25;;
52166;SDS011;38149;52.666;6.428;2024-03-08T10:29:09;0.20;;;0.20;;
52166;SDS011;38149;52.666;6.428;2024-03-08T10:31:35;0.30;;;0.30;;
52166;SDS011;38149;52.666;6.428;2024-03-08T10:34:01;0.20;;;0.20;;
52166;SDS011;38149;52.666;6.428;2024-03-08T10:36:28;0.20;;;0.20;;
52166;SDS011;38149;52.666;6.428;2024-03-08T10:38:54;0.20;;;0.20;;
52166;SDS011;38149;52.666;6.428;2024-03-08T10:41:23;0.30;;;0.30;;
52166;SDS011;38149;52.666;6.428;2024-03-08T10:49:25;0.30;;;0.30;;
52166;SDS011;38149;52.666;6.428;2024-03-08T10:51:57;0.30;;;0.30;;
52166;SDS011;38149;52.666;6.428;2024-03-08T10:54:24;0.30;;;0.30;;
52166;SDS011;38149;52.666;6.428;2024-03-08T10:56:52;0.20;;;0.20;;
52166;SDS011;38149;52.666;6.428;2024-03-08T10:59:19;0.30;;;0.30;;
52166;SDS011;38149;52.666;6.428;2024-03-08T11:01:45;0.20;;;0.20;;
52166;SDS011;38149;52.666;6.428;2024-03-08T11:04:11;0.30;;;0.30;;
52166;SDS011;38149;52.666;6.428;2024-03-08T11:09:49;0.20;;;0.20;;
52166;SDS011;38149;52.666;6.428;2024-03-08T11:12:27;0.20;;;0.20;;
52166;SDS011;38149;52.666;6.428;2024-03-08T11:14:50;0.20;;;0.20;;
52166;SDS011;38149;52.666;6.428;2024-03-08T11:19:59;0.30;;;0.30;;
52166;SDS011;38149;52.666;6.428;2024-03-08T11:22:31;0.30;;;0.30;;
52166;SDS011;38149;52.666;6.428;2024-03-08T11:24:58;0.30;;;0.30;;
52166;SDS011;38149;52.666;6.428;2024-03-08T11:27:36;0.30;;;0.30;;
52166;SDS011;38149;52.666;6.428;2024-03-08T11:30:03;0.20;;;0.20;;
52166;SDS011;38149;52.666;6.428;2024-03-08T11:32:36;0.20;;;0.20;;
52166;SDS011;38149;52.666;6.428;2024-03-08T11:35:06;0.20;;;0.20;;
52166;SDS011;38149;52.666;6.428;2024-03-08T11:37:34;0.20;;;0.20;;
52166;SDS011;38149;52.666;6.428;2024-03-08T11:40:01;0.20;;;0.20;;
52166;SDS011;38149;52.666;6.428;2024-03-08T11:42:29;0.20;;;0.20;;
52166;SDS011;38149;52.666;6.428;2024-03-08T11:44:56;0.20;;;0.20;;
52166;SDS011;38149;52.666;6.428;2024-03-08T11:47:23;0.20;;;0.20;;
52166;SDS011;38149;52.666;6.428;2024-03-08T11:49:51;0.20;;;0.20;;
52166;SDS011;38149;52.666;6.428;2024-03-08T11:52:18;0.20;;;0.20;;
52166;SDS011;38149;52.666;6.428;2024-03-08T11:54:48;0.20;;;0.20;;
52166;SDS011;38149;52.666;6.428;2024-03-08T11:57:23;0.20;;;0.20;;
52166;SDS011;38149;52.666;6.428;2024-03-08T11:59:50;0.20;;;0.20;;
52166;SDS011;38149;52.666;6.428;2024-03-08T12:02:17;0.20;;;0.20;;
52166;SDS011;38149;52.666;6.428;2024-03-08T12:04:44;0.20;;;0.20;;
52166;SDS011;38149;52.666;6.428;2024-03-08T12:07:14;0.20;;;0.20;;
52166;SDS011;38149;52.666;6.428;2024-03-08T12:09:43;0.20;;;0.20;;
52166;SDS011;38149;52.666;6.428;2024-03-08T12:12:28;0.20;;;0.20;;
52166;SDS011;38149;52.666;6.428;2024-03-08T12:14:54;0.20;;;0.20;;
52166;SDS011;38149;52.666;6.428;2024-03-08T12:17:22;0.20;;;0.20;;
52166;SDS011;38149;52.666;6.428;2024-03-08T12:19:49;0.20;;;0.20;;
52166;SDS011;38149;52.666;6.428;2024-03-08T12:22:15;0.20;;;0.20;;
52166;SDS011;38149;52.666;6.428;2024-03-08T12:24:41;0.20;;;0.20;;
52166;SDS011;38149;52.666;6.428;2024-03-08T12:27:19;0.20;;;0.20;;
52166;SDS011;38149;52.666;6.428;2024-03-08T12:29:45;0.20;;;0.20;;
52166;SDS011;38149;52.666;6.428;2024-03-08T12:32:12;0.20;;;0.20;;
52166;SDS011;38149;52.666;6.428;2024-03-08T12:34:38;0.20;;;0.20;;
52166;SDS011;38149;52.666;6.428;2024-03-08T12:37:04;0.20;;;0.20;;
52166;SDS011;38149;52.666;6.428;2024-03-08T12:39:32;0.20;;;0.20;;
52166;SDS011;38149;52.666;6.428;2024-03-08T12:41:58;0.20;;;0.20;;
52166;SDS011;38149;52.666;6.428;2024-03-08T12:44:25;0.20;;;0.20;;
52166;SDS011;38149;52.666;6.428;2024-03-08T12:46:53;0.20;;;0.20;;
52166;SDS011;38149;52.666;6.428;2024-03-08T12:49:19;0.20;;;0.20;;
52166;SDS011;38149;52.666;6.428;2024-03-08T12:51:48;0.20;;;0.20;;
52166;SDS011;38149;52.666;6.428;2024-03-08T12:54:14;0.20;;;0.20;;
52166;SDS011;38149;52.666;6.428;2024-03-08T12:56:40;0.20;;;0.20;;
52166;SDS011;38149;52.666;6.428;2024-03-08T12:59:07;0.20;;;0.20;;
52166;SDS011;38149;52.666;6.428;2024-03-08T13:01:35;0.20;;;0.20;;
52166;SDS011;38149;52.666;6.428;2024-03-08T13:04:04;0.20;;;0.20;;
52166;SDS011;38149;52.666;6.428;2024-03-08T13:06:32;0.20;;;0.20;;
52166;SDS011;38149;52.666;6.428;2024-03-08T13:08:58;0.20;;;0.20;;
52166;SDS011;38149;52.666;6.428;2024-03-08T13:11:30;0.20;;;0.20;;
52166;SDS011;38149;52.666;6.428;2024-03-08T13:14:01;0.20;;;0.20;;
52166;SDS011;38149;52.666;6.428;2024-03-08T13:16:29;0.20;;;0.20;;
52166;SDS011;38149;52.666;6.428;2024-03-08T13:18:55;0.20;;;0.20;;
52166;SDS011;38149;52.666;6.428;2024-03-08T13:21:22;0.20;;;0.20;;
52166;SDS011;38149;52.666;6.428;2024-03-08T13:23:49;0.20;;;0.20;;
52166;SDS011;38149;52.666;6.428;2024-03-08T13:26:18;0.20;;;0.20;;
52166;SDS011;38149;52.666;6.428;2024-03-08T13:28:48;0.20;;;0.20;;
52166;SDS011;38149;52.666;6.428;2024-03-08T13:31:18;0.20;;;0.20;;
52166;SDS011;38149;52.666;6.428;2024-03-08T13:33:47;0.20;;;0.20;;
52166;SDS011;38149;52.666;6.428;2024-03-08T13:36:14;0.20;;;0.20;;
52166;SDS011;38149;52.666;6.428;2024-03-08T13:38:43;0.10;;;0.10;;
52166;SDS011;38149;52.666;6.428;2024-03-08T13:41:11;0.20;;;0.20;;
52166;SDS011;38149;52.666;6.428;2024-03-08T13:43:39;0.20;;;0.20;;
52166;SDS011;38149;52.666;6.428;2024-03-08T13:46:11;0.20;;;0.20;;
52166;SDS011;38149;52.666;6.428;2024-03-08T13:48:38;0.20;;;0.20;;
52166;SDS011;38149;52.666;6.428;2024-03-08T13:51:04;0.20;;;0.20;;
52166;SDS011;38149;52.666;6.428;2024-03-08T13:53:31;0.20;;;0.20;;
52166;SDS011;38149;52.666;6.428;2024-03-08T13:55:59;0.20;;;0.20;;
52166;SDS011;38149;52.666;6.428;2024-03-08T13:58:30;0.20;;;0.20;;
52166;SDS011;38149;52.666;6.428;2024-03-08T14:00:56;0.20;;;0.20;;
52166;SDS011;38149;52.666;6.428;2024-03-08T14:03:22;0.20;;;0.20;;
52166;SDS011;38149;52.666;6.428;2024-03-08T14:05:51;0.20;;;0.20;;
52166;SDS011;38149;52.666;6.428;2024-03-08T14:08:17;0.20;;;0.20;;
52166;SDS011;38149;52.666;6.428;2024-03-08T14:10:44;0.20;;;0.20;;
52166;SDS011;38149;52.666;6.428;2024-03-08T14:13:12;0.20;;;0.20;;
52166;SDS011;38149;52.666;6.428;2024-03-08T14:15:41;0.20;;;0.20;;
52166;SDS011;38149;52.666;6.428;2024-03-08T14:18:07;0.20;;;0.20;;
52166;SDS011;38149;52.666;6.428;2024-03-08T14:20:33;0.20;;;0.20;;
52166;SDS011;38149;52.666;6.428;2024-03-08T14:23:01;0.10;;;0.10;;
52166;SDS011;38149;52.666;6.428;2024-03-08T14:25:28;0.10;;;0.10;;
52166;SDS011;38149;52.666;6.428;2024-03-08T14:27:55;0.20;;;0.20;;
52166;SDS011;38149;52.666;6.428;2024-03-08T14:30:27;0.10;;;0.10;;
52166;SDS011;38149;52.666;6.428;2024-03-08T14:33:06;0.10;;;0.10;;
52166;SDS011;38149;52.666;6.428;2024-03-08T14:35:36;0.20;;;0.20;;
52166;SDS011;38149;52.666;6.428;2024-03-08T14:38:02;0.10;;;0.10;;
52166;SDS011;38149;52.666;6.428;2024-03-08T14:40:29;0.10;;;0.10;;
52166;SDS011;38149;52.666;6.428;2024-03-08T14:42:56;0.10;;;0.10;;
52166;SDS011;38149;52.666;6.428;2024-03-08T14:45:22;0.20;;;0.20;;
52166;SDS011;38149;52.666;6.428;2024-03-08T14:47:49;0.10;;;0.10;;
52166;SDS011;38149;52.666;6.428;2024-03-08T14:50:19;0.20;;;0.20;;
52166;SDS011;38149;52.666;6.428;2024-03-08T14:52:46;0.10;;;0.10;;
52166;SDS011;38149;52.666;6.428;2024-03-08T14:55:13;0.17;;;0.17;;
52166;SDS011;38149;52.666;6.428;2024-03-08T14:57:44;0.10;;;0.10;;
52166;SDS011;38149;52.666;6.428;2024-03-08T15:00:11;0.10;;;0.10;;
52166;SDS011;38149;52.666;6.428;2024-03-08T15:02:45;0.20;;;0.20;;
52166;SDS011;38149;52.666;6.428;2024-03-08T15:05:13;0.20;;;0.20;;
52166;SDS011;38149;52.666;6.428;2024-03-08T15:07:39;0.10;;;0.10;;